Time;durP1;ratioP1;P1;durP2;ratioP2;P2;SDS_P1;SDS_P2;PMS_P1;PMS_P2;Temp;Humidity;BMP_temperature;BMP_pressure;BME280_temperature;BME280_humidity;BME280_pressure;Samples;Min_cycle;Max_cycle;Signal;HPM_P1;HPM_P2
2022/12/14 00:01:21;;;;;;;11.13;9.73;;;-4.50;99.90;-5.80;99666;;;;571927;247;24130;-70
2022/12/14 00:03:49;;;;;;;10.60;9.33;;;-4.60;99.90;-5.90;99672;;;;571998;247;25199;-71
2022/12/14 00:06:22;;;;;;;8.90;7.73;;;-4.60;99.90;-5.90;99674;;;;569419;247;24133;-71
2022/12/14 00:08:53;;;;;;;9.87;8.20;;;-4.60;99.90;-5.90;99662;;;;572000;247;24129;-71
2022/12/14 00:11:19;;;;;;;11.70;9.43;;;-4.70;99.90;-5.90;99669;;;;571982;247;24136;-70
2022/12/14 00:13:47;;;;;;;10.50;8.37;;;-4.70;99.90;-5.90;99669;;;;569158;247;24105;-69
2022/12/14 00:16:15;;;;;;;13.03;8.83;;;-4.70;99.90;-6.00;99664;;;;580021;246;24134;-69
2022/12/14 00:18:43;;;;;;;9.47;7.63;;;-4.80;99.90;-6.00;99663;;;;571359;247;24105;-70
2022/12/14 00:21:11;;;;;;;13.70;8.20;;;-4.80;99.90;-6.10;99666;;;;571345;247;24130;-70
2022/12/14 00:23:42;;;;;;;9.53;7.87;;;-4.80;99.90;-6.00;99663;;;;572379;247;24115;-82
2022/12/14 00:26:13;;;;;;;11.47;7.93;;;-4.80;99.90;-6.10;99659;;;;573122;247;24101;-73
2022/12/14 00:28:41;;;;;;;13.30;8.40;;;-4.80;99.90;-6.10;99673;;;;571292;247;24105;-71
2022/12/14 00:31:12;;;;;;;9.53;7.63;;;-4.80;99.90;-6.10;99685;;;;572437;247;24177;-72
2022/12/14 00:33:37;;;;;;;9.90;8.03;;;-4.80;99.90;-6.00;99677;;;;572893;247;24163;-76
2022/12/14 00:36:05;;;;;;;10.00;7.67;;;-4.80;99.90;-6.00;99685;;;;580683;247;24092;-71
2022/12/14 00:38:32;;;;;;;9.47;8.20;;;-4.70;99.90;-5.90;99691;;;;571987;247;24126;-74
2022/12/14 00:41:00;;;;;;;10.60;7.83;;;-4.70;99.90;-5.90;99684;;;;576271;247;24102;-71
2022/12/14 00:43:28;;;;;;;9.77;7.30;;;-4.70;99.90;-5.80;99679;;;;568789;247;24130;-72
2022/12/14 00:45:56;;;;;;;9.47;7.47;;;-4.60;99.90;-5.80;99678;;;;580300;247;24098;-71
2022/12/14 00:48:24;;;;;;;9.40;7.40;;;-4.50;99.90;-5.70;99686;;;;575568;247;24153;-71
2022/12/14 00:50:55;;;;;;;10.13;7.40;;;-4.50;99.90;-5.70;99680;;;;576978;246;25202;-73
2022/12/14 00:53:24;;;;;;;11.87;7.67;;;-4.40;99.90;-5.70;99676;;;;572078;246;24090;-71
2022/12/14 00:55:49;;;;;;;11.30;7.60;;;-4.40;99.90;-5.60;99678;;;;571874;246;24118;-71
2022/12/14 00:58:19;;;;;;;11.17;7.60;;;-4.40;99.90;-5.60;99679;;;;572073;247;24194;-70
2022/12/14 01:00:51;;;;;;;8.63;7.20;;;-4.30;99.90;-5.60;99679;;;;571982;247;24089;-70
2022/12/14 01:03:15;;;;;;;9.90;7.03;;;-4.40;99.90;-5.60;99676;;;;572011;247;24106;-71
2022/12/14 01:05:43;;;;;;;8.80;7.10;;;-4.40;99.90;-5.60;99689;;;;570997;247;24094;-70
2022/12/14 01:08:13;;;;;;;12.03;6.70;;;-4.40;99.90;-5.60;99681;;;;575650;247;24086;-71
2022/12/14 01:10:39;;;;;;;9.33;6.97;;;-4.40;99.90;-5.70;99674;;;;571452;247;24074;-71
2022/12/14 01:13:09;;;;;;;9.70;7.37;;;-4.40;99.90;-5.70;99681;;;;571290;247;24087;-72
2022/12/14 01:15:37;;;;;;;9.60;7.10;;;-4.40;99.90;-5.70;99673;;;;570707;247;24196;-72
2022/12/14 01:18:05;;;;;;;9.43;6.60;;;-4.50;99.90;-5.80;99673;;;;580594;247;24106;-71
2022/12/14 01:20:32;;;;;;;8.27;6.77;;;-4.50;99.90;-5.80;99673;;;;575965;247;24124;-71
2022/12/14 01:23:00;;;;;;;9.57;6.67;;;-4.50;99.90;-5.80;99675;;;;576045;247;24097;-71
2022/12/14 01:25:28;;;;;;;6.97;6.27;;;-4.60;99.90;-5.90;99669;;;;575447;247;24142;-70
2022/12/14 01:27:57;;;;;;;7.93;7.10;;;-4.70;99.90;-5.90;99671;;;;575510;247;24098;-70
2022/12/14 01:30:25;;;;;;;10.03;6.90;;;-4.70;99.90;-6.00;99659;;;;575328;247;24184;-70
2022/12/14 01:32:53;;;;;;;8.90;7.03;;;-4.70;99.90;-6.00;99657;;;;571404;247;24128;-71
2022/12/14 01:35:21;;;;;;;8.00;6.60;;;-4.70;99.90;-6.00;99661;;;;576344;247;24085;-71
2022/12/14 01:37:49;;;;;;;9.87;7.40;;;-4.70;99.90;-6.00;99653;;;;576900;247;24174;-71
2022/12/14 01:40:16;;;;;;;9.90;7.30;;;-4.70;99.90;-6.00;99655;;;;577073;247;24089;-71
2022/12/14 01:42:44;;;;;;;7.77;6.80;;;-4.70;99.90;-6.00;99654;;;;581556;247;24112;-70
2022/12/14 01:45:24;;;;;;;7.97;7.10;;;-4.70;99.90;-6.00;99664;;;;575522;247;24089;-69
2022/12/14 01:47:52;;;;;;;8.93;7.07;;;-4.80;99.90;-6.00;99656;;;;570194;247;24090;-69
2022/12/14 01:50:25;;;;;;;8.20;7.03;;;-4.80;99.90;-6.10;99650;;;;575471;247;24093;-71
2022/12/14 01:52:53;;;;;;;8.03;6.57;;;-4.80;99.90;-6.20;99649;;;;571925;247;25173;-71
2022/12/14 01:55:24;;;;;;;10.53;7.90;;;-4.90;99.90;-6.20;99650;;;;572017;247;24109;-70
2022/12/14 01:58:16;;;;;;;10.83;7.37;;;-4.90;99.90;-6.30;99654;;;;570429;247;24118;-71
2022/12/14 02:00:50;;;;;;;9.50;7.23;;;-5.00;99.90;-6.40;99648;;;;581398;245;24116;-71
2022/12/14 02:03:20;;;;;;;9.50;7.03;;;-5.10;99.90;-6.40;99643;;;;571320;246;24106;-72
2022/12/14 02:05:51;;;;;;;9.23;7.37;;;-5.20;99.90;-6.50;99651;;;;572877;246;25130;-69
2022/12/14 02:08:20;;;;;;;8.07;7.20;;;-5.30;99.90;-6.60;99643;;;;571906;246;24119;-69
2022/12/14 02:10:48;;;;;;;8.40;7.10;;;-5.30;99.90;-6.60;99629;;;;573220;247;24112;-70
2022/12/14 02:13:25;;;;;;;12.37;8.10;;;-5.30;99.90;-6.70;99637;;;;571989;247;25163;-72
2022/12/14 02:15:56;;;;;;;10.20;8.23;;;-5.40;99.90;-6.70;99635;;;;581170;247;24090;-70
2022/12/14 02:18:21;;;;;;;8.40;7.43;;;-5.50;99.90;-6.70;99641;;;;572396;247;24135;-72
2022/12/14 02:21:13;;;;;;;10.80;8.03;;;-5.50;99.90;-6.80;99623;;;;572418;247;24119;-75
2022/12/14 02:24:03;;;;;;;11.00;8.10;;;-5.50;99.90;-6.80;99637;;;;572479;247;24123;-79
2022/12/14 02:26:45;;;;;;;12.87;8.80;;;-5.50;99.90;-6.80;99644;;;;572114;247;24132;-83
2022/12/14 02:29:41;;;;;;;12.50;8.40;;;-5.60;99.90;-6.90;99636;;;;572551;247;24100;-78
2022/12/14 02:32:36;;;;;;;9.60;7.83;;;-5.60;99.90;-6.90;99636;;;;576582;247;24086;-82
2022/12/14 02:35:25;;;;;;;11.13;8.40;;;-5.60;99.90;-7.00;99641;;;;567052;247;24160;-84
2022/12/14 02:37:57;;;;;;;10.77;8.67;;;-5.70;99.90;-7.00;99641;;;;571471;247;24079;-82
2022/12/14 02:40:39;;;;;;;13.47;9.70;;;-5.70;99.90;-7.00;99643;;;;575894;247;24235;-70
2022/12/14 02:43:22;;;;;;;11.87;9.50;;;-5.70;99.90;-7.10;99647;;;;571310;247;24087;-72
2022/12/14 02:46:02;;;;;;;14.77;8.80;;;-5.80;99.90;-7.10;99649;;;;580101;247;24083;-71
2022/12/14 02:48:33;;;;;;;12.27;8.50;;;-5.80;99.90;-7.10;99649;;;;557851;247;24128;-71
2022/12/14 02:51:10;;;;;;;11.87;8.60;;;-5.90;99.90;-7.20;99660;;;;571508;247;24091;-71
2022/12/14 02:56:44;;;;;;;14.40;9.20;;;-5.90;99.90;-7.20;99654;;;;572746;251;24275;-75
2022/12/14 02:59:12;;;;;;;10.80;8.23;;;-5.90;99.90;-7.20;99643;;;;558766;252;24131;-78
2022/12/14 03:01:40;;;;;;;12.87;9.93;;;-6.00;99.90;-7.30;99643;;;;566499;252;24152;-71
2022/12/14 03:04:07;;;;;;;13.17;9.60;;;-6.00;99.90;-7.30;99631;;;;559334;252;24123;-71
2022/12/14 03:06:35;;;;;;;12.00;9.07;;;-6.00;99.90;-7.30;99636;;;;566765;252;24177;-71
2022/12/14 03:09:04;;;;;;;14.03;9.47;;;-6.10;99.90;-7.40;99629;;;;577818;248;24140;-72
2022/12/14 03:11:56;;;;;;;13.07;9.60;;;-6.10;99.90;-7.40;99624;;;;583584;246;24085;-70
2022/12/14 03:14:26;;;;;;;12.27;9.13;;;-6.10;99.90;-7.40;99617;;;;574333;244;24179;-70
2022/12/14 03:17:00;;;;;;;13.13;9.57;;;-6.20;99.90;-7.50;99610;;;;569096;252;24156;-70
2022/12/14 03:19:26;;;;;;;12.67;9.00;;;-6.20;99.90;-7.50;99616;;;;568364;249;24115;-70
2022/12/14 03:21:57;;;;;;;13.37;10.00;;;-6.20;99.90;-7.50;99613;;;;573645;249;24103;-71
2022/12/14 03:24:30;;;;;;;11.53;9.57;;;-6.20;99.90;-7.50;99613;;;;564019;249;24112;-72
2022/12/14 03:27:05;;;;;;;12.97;9.93;;;-6.20;99.90;-7.60;99624;;;;555079;253;24112;-72
2022/12/14 03:29:35;;;;;;;11.27;9.83;;;-6.30;99.90;-7.60;99625;;;;569378;249;24162;-75
2022/12/14 03:32:03;;;;;;;13.93;9.50;;;-6.30;99.90;-7.60;99632;;;;564235;254;26562;-71
2022/12/14 03:34:31;;;;;;;11.00;9.63;;;-6.30;99.90;-7.70;99637;;;;573824;245;24078;-70
2022/12/14 03:37:08;;;;;;;12.77;10.20;;;-6.40;99.90;-7.70;99639;;;;569641;248;24096;-70
2022/12/14 03:39:36;;;;;;;13.03;10.10;;;-6.40;99.90;-7.70;99637;;;;563154;255;24455;-70
2022/12/14 03:42:43;;;;;;;14.40;11.02;;;-6.40;99.90;-7.70;99635;;;;560722;251;46339;-70
2022/12/14 03:45:19;;;;;;;12.83;10.33;;;-6.40;99.90;-7.80;99635;;;;565832;251;24132;-71
2022/12/14 03:47:56;;;;;;;13.00;10.20;;;-6.40;99.90;-7.80;99630;;;;570227;251;24111;-70
2022/12/14 03:51:00;;;;;;;14.17;9.97;;;-6.50;99.90;-7.80;99625;;;;573637;250;24152;-70
2022/12/14 03:53:49;;;;;;;13.13;9.37;;;-6.50;99.90;-7.90;99639;;;;563996;251;24192;-73
2022/12/14 03:56:35;;;;;;;13.07;9.90;;;-6.50;99.90;-7.90;99646;;;;563846;251;24115;-71
2022/12/14 03:59:08;;;;;;;12.73;9.90;;;-6.60;99.90;-8.00;99640;;;;563901;251;24121;-70
2022/12/14 04:02:01;;;;;;;13.23;9.93;;;-6.70;99.90;-8.00;99636;;;;564146;251;24122;-69
2022/12/14 04:04:47;;;;;;;12.37;9.43;;;-6.70;99.90;-8.10;99636;;;;564156;251;24095;-70
2022/12/14 04:07:23;;;;;;;16.10;10.27;;;-6.70;99.90;-8.10;99628;;;;564554;251;24140;-71
2022/12/14 04:09:57;;;;;;;15.13;9.43;;;-6.70;99.90;-8.10;99624;;;;565606;251;24267;-71
2022/12/14 04:21:08;;;;;;;12.87;9.83;;;-6.80;99.90;-8.20;99621;;;;573741;250;24154;-73
2022/12/14 04:26:22;;;;;;;11.93;9.03;;;-6.80;99.90;-8.20;99626;;;;575002;249;24113;-74
2022/12/14 04:31:41;;;;;;;13.20;9.43;;;-6.90;99.90;-8.30;99618;;;;565184;250;24120;-75
2022/12/14 04:34:09;;;;;;;14.60;9.60;;;-6.90;99.90;-8.30;99618;;;;564774;250;24127;-72
2022/12/14 04:36:45;;;;;;;13.90;9.43;;;-6.90;99.90;-8.30;99615;;;;564795;250;24144;-72
2022/12/14 04:39:13;;;;;;;13.57;10.17;;;-6.90;99.90;-8.30;99618;;;;564750;250;24091;-71
2022/12/14 04:41:41;;;;;;;13.03;8.93;;;-6.90;99.90;-8.30;99603;;;;573765;250;24115;-75
2022/12/14 04:44:13;;;;;;;14.80;9.90;;;-6.90;99.90;-8.30;99624;;;;564342;251;24111;-75
2022/12/14 04:46:42;;;;;;;11.07;8.93;;;-7.00;99.90;-8.30;99606;;;;564486;251;24131;-70
2022/12/14 04:49:19;;;;;;;13.87;9.37;;;-7.00;99.90;-8.30;99605;;;;564333;251;24245;-71
2022/12/14 04:52:15;;;;;;;10.53;8.63;;;-7.00;99.90;-8.40;99610;;;;564298;251;25253;-71
2022/12/14 04:54:53;;;;;;;10.53;8.70;;;-7.00;99.90;-8.40;99615;;;;564374;251;24130;-71
2022/12/14 04:57:51;;;;;;;11.80;8.70;;;-7.00;99.90;-8.40;99615;;;;564367;251;24155;-72
2022/12/14 05:00:19;;;;;;;12.20;9.53;;;-7.00;99.90;-8.40;99613;;;;564396;251;24129;-72
2022/12/14 05:02:47;;;;;;;11.70;9.60;;;-7.00;99.90;-8.40;99617;;;;574277;246;24101;-73
2022/12/14 05:05:17;;;;;;;11.10;9.20;;;-7.00;99.90;-8.40;99602;;;;562433;251;24221;-73
2022/12/14 05:08:13;;;;;;;11.07;8.87;;;-7.00;99.90;-8.40;99608;;;;564270;251;24201;-71
2022/12/14 05:10:44;;;;;;;15.53;9.67;;;-7.00;99.90;-8.40;99593;;;;564363;251;24112;-70
2022/12/14 05:13:29;;;;;;;10.80;9.37;;;-7.10;99.90;-8.50;99586;;;;564069;251;24129;-72
2022/12/14 05:16:02;;;;;;;14.73;9.03;;;-7.10;99.90;-8.60;99589;;;;550980;256;24181;-72
2022/12/14 05:18:26;;;;;;;16.07;9.93;;;-7.20;99.90;-8.60;99596;;;;559213;249;24109;-71
2022/12/14 05:20:54;;;;;;;17.35;12.73;;;-7.20;99.90;-8.60;99586;;;;562373;253;35458;-72
2022/12/14 05:23:22;;;;;;;14.93;11.07;;;-7.20;99.90;-8.60;99591;;;;569037;249;24060;-71
2022/12/14 05:25:50;;;;;;;17.33;11.53;;;-7.20;99.90;-8.60;99581;;;;557917;255;24162;-73
2022/12/14 05:28:18;;;;;;;12.90;10.43;;;-7.20;99.90;-8.60;99585;;;;557685;255;24109;-74
2022/12/14 05:30:46;;;;;;;14.97;10.73;;;-7.30;99.90;-8.60;99582;;;;558473;255;25267;-76
2022/12/14 05:33:14;;;;;;;12.83;10.97;;;-7.20;99.90;-8.60;99571;;;;558415;251;24196;-71
2022/12/14 05:35:42;;;;;;;17.47;10.90;;;-7.20;99.90;-8.60;99573;;;;556079;254;24182;-75
2022/12/14 05:38:12;;;;;;;14.90;11.10;;;-7.30;99.90;-8.70;99571;;;;558617;254;24103;-70
2022/12/14 05:40:38;;;;;;;13.27;10.37;;;-7.30;99.90;-8.70;99573;;;;558244;254;24131;-72
2022/12/14 05:43:06;;;;;;;14.90;10.63;;;-7.30;99.90;-8.70;99570;;;;558187;254;24150;-71
2022/12/14 05:45:34;;;;;;;14.20;10.43;;;-7.30;99.90;-8.70;99573;;;;557782;254;24121;-71
2022/12/14 05:48:02;;;;;;;15.17;11.20;;;-7.30;99.90;-8.70;99581;;;;557768;254;24126;-74
2022/12/14 05:50:30;;;;;;;16.47;12.23;;;-7.20;99.90;-8.60;99589;;;;557751;254;24106;-73
2022/12/14 05:52:58;;;;;;;18.43;10.83;;;-7.20;99.90;-8.60;99586;;;;557795;254;24130;-72
2022/12/14 05:55:26;;;;;;;28.53;13.57;;;-7.20;99.90;-8.60;99586;;;;557594;254;24162;-71
2022/12/14 05:57:53;;;;;;;26.30;14.23;;;-7.20;99.90;-8.60;99584;;;;557569;254;24110;-71
2022/12/14 06:00:21;;;;;;;16.73;12.87;;;-7.20;99.90;-8.70;99593;;;;557451;254;24157;-70
2022/12/14 06:02:50;;;;;;;17.27;11.13;;;-7.30;99.90;-8.70;99596;;;;557706;254;24125;-71
2022/12/14 06:05:19;;;;;;;16.87;11.73;;;-7.30;99.90;-8.80;99581;;;;558380;254;24113;-73
2022/12/14 06:07:47;;;;;;;17.43;11.57;;;-7.30;99.90;-8.80;99577;;;;558422;254;24116;-72
2022/12/14 06:10:15;;;;;;;18.93;13.37;;;-7.40;99.90;-8.90;99590;;;;558335;254;24105;-71
2022/12/14 06:12:43;;;;;;;20.53;12.57;;;-7.50;99.90;-8.90;99583;;;;558115;255;24102;-73
2022/12/14 06:15:12;;;;;;;19.33;13.13;;;-7.50;99.90;-9.00;99582;;;;558000;255;24126;-80
2022/12/14 06:17:41;;;;;;;19.03;12.77;;;-7.50;99.90;-9.00;99580;;;;558307;255;24100;-77
2022/12/14 06:20:10;;;;;;;20.60;13.50;;;-7.60;99.90;-9.00;99579;;;;555348;255;24142;-72
2022/12/14 06:22:38;;;;;;;19.73;14.77;;;-7.60;99.90;-9.00;99577;;;;565601;254;24164;-74
2022/12/14 06:25:06;;;;;;;19.87;14.40;;;-7.60;99.90;-9.00;99580;;;;557340;255;24133;-74
2022/12/14 06:27:34;;;;;;;24.77;15.10;;;-7.60;99.90;-9.00;99582;;;;565499;254;24147;-74
2022/12/14 06:30:03;;;;;;;21.87;14.80;;;-7.60;99.90;-9.00;99578;;;;557480;255;24192;-72
2022/12/14 06:32:31;;;;;;;19.03;13.47;;;-7.60;99.90;-9.10;99582;;;;556190;255;25152;-73
2022/12/14 06:34:59;;;;;;;24.20;15.40;;;-7.60;99.90;-9.10;99579;;;;557832;255;24126;-72
2022/12/14 06:37:27;;;;;;;20.73;14.47;;;-7.70;99.90;-9.20;99579;;;;557766;255;24118;-75
2022/12/14 06:39:55;;;;;;;20.67;13.80;;;-7.70;99.90;-9.20;99580;;;;557753;255;24102;-71
2022/12/14 06:42:22;;;;;;;22.50;17.33;;;-7.80;99.90;-9.20;99590;;;;557883;255;24107;-72
2022/12/14 06:44:50;;;;;;;23.47;15.73;;;-7.80;99.90;-9.30;99583;;;;558019;255;24162;-73
2022/12/14 06:47:18;;;;;;;36.55;28.62;;;-7.80;99.90;-9.30;99587;;;;553696;254;35566;-74
2022/12/14 06:49:46;;;;;;;29.40;21.80;;;-7.80;99.90;-9.30;99586;;;;559143;254;24132;-73
2022/12/14 06:52:14;;;;;;;28.47;19.10;;;-7.90;99.90;-9.30;99587;;;;558951;254;24109;-72
2022/12/14 06:54:46;;;;;;;26.00;17.40;;;-7.90;99.90;-9.30;99591;;;;558744;254;24108;-71
2022/12/14 06:57:10;;;;;;;27.17;16.87;;;-7.90;99.90;-9.30;99589;;;;558366;254;24137;-72
2022/12/14 06:59:38;;;;;;;23.50;17.33;;;-7.90;99.90;-9.30;99598;;;;558608;254;24150;-71
2022/12/14 07:02:06;;;;;;;27.23;16.40;;;-7.90;99.90;-9.30;99592;;;;558599;254;24119;-72
2022/12/14 07:04:34;;;;;;;25.53;17.97;;;-7.90;99.90;-9.20;99597;;;;558506;254;24165;-72
2022/12/14 07:07:02;;;;;;;23.60;16.93;;;-7.80;99.90;-9.20;99593;;;;558366;254;24118;-72
2022/12/14 07:09:30;;;;;;;22.73;15.23;;;-7.80;99.90;-9.10;99593;;;;558394;254;24099;-73
2022/12/14 07:11:57;;;;;;;22.67;15.10;;;-7.70;99.90;-9.10;99582;;;;558298;254;24103;-70
2022/12/14 07:14:26;;;;;;;19.20;15.57;;;-7.70;99.90;-9.10;99588;;;;558203;254;24122;-71
2022/12/14 07:16:54;;;;;;;23.63;15.67;;;-7.70;99.90;-9.00;99591;;;;557155;254;24161;-70
2022/12/14 07:19:22;;;;;;;25.20;16.13;;;-7.60;99.90;-9.00;99591;;;;557205;254;24106;-71
2022/12/14 07:21:50;;;;;;;20.53;14.83;;;-7.60;99.90;-9.00;99593;;;;557110;254;24132;-72
2022/12/14 07:24:18;;;;;;;22.03;15.67;;;-7.60;99.90;-9.00;99599;;;;557052;255;24168;-74
2022/12/14 07:26:46;;;;;;;19.90;15.07;;;-7.60;99.90;-8.90;99599;;;;557006;255;24137;-72
2022/12/14 07:29:15;;;;;;;21.87;16.10;;;-7.50;99.90;-8.90;99598;;;;556823;255;24151;-72
2022/12/14 07:31:42;;;;;;;23.90;16.07;;;-7.50;99.90;-8.80;99595;;;;556841;255;24149;-72
2022/12/14 07:34:12;;;;;;;21.33;15.33;;;-7.50;99.90;-8.80;99580;;;;557203;255;24138;-72
2022/12/14 07:36:38;;;;;;;22.73;16.10;;;-7.50;99.90;-8.80;99594;;;;554374;255;24137;-76
2022/12/14 07:39:06;;;;;;;23.53;15.83;;;-7.40;99.90;-8.70;99594;;;;558582;255;24106;-72
2022/12/14 07:41:33;;;;;;;22.73;16.37;;;-7.40;99.90;-8.70;99588;;;;558783;255;25154;-70
2022/12/14 07:44:01;;;;;;;24.97;16.50;;;-7.30;99.90;-8.60;99587;;;;558744;255;24156;-74
2022/12/14 07:46:30;;;;;;;26.20;18.17;;;-7.30;99.90;-8.60;99584;;;;557549;255;24138;-70
2022/12/14 07:48:57;;;;;;;30.23;21.03;;;-7.20;99.90;-8.50;99586;;;;554734;255;24117;-71
2022/12/14 07:51:27;;;;;;;36.03;24.57;;;-7.20;99.90;-8.50;99580;;;;554854;255;24106;-71
2022/12/14 07:53:54;;;;;;;41.67;26.50;;;-7.20;99.90;-8.50;99585;;;;555766;255;25184;-71
2022/12/14 07:56:25;;;;;;;38.87;22.07;;;-7.10;99.90;-8.40;99582;;;;557643;255;24161;-76
2022/12/14 07:58:55;;;;;;;36.20;26.00;;;-7.10;99.90;-8.30;99589;;;;556381;254;24150;-76
2022/12/14 08:01:29;;;;;;;29.20;21.37;;;-7.00;99.90;-8.20;99577;;;;557172;254;24150;-70
2022/12/14 08:03:59;;;;;;;27.13;18.17;;;-6.90;99.90;-8.20;99574;;;;557153;254;24126;-72
2022/12/14 08:06:27;;;;;;;24.42;16.95;;;-6.90;99.90;-8.10;99587;;;;553945;254;35470;-73
2022/12/14 08:08:56;;;;;;;23.63;16.37;;;-6.80;99.90;-8.10;99577;;;;559098;254;24116;-74
2022/12/14 08:11:25;;;;;;;22.90;16.40;;;-6.70;99.90;-8.00;99577;;;;556562;254;24097;-71
2022/12/14 08:13:56;;;;;;;23.60;15.70;;;-6.70;99.90;-7.90;99580;;;;559101;254;24124;-74
2022/12/14 08:16:24;;;;;;;21.03;16.20;;;-6.60;99.90;-7.90;99586;;;;556380;254;24116;-74
2022/12/14 08:18:55;;;;;;;19.93;15.97;;;-6.50;99.90;-7.80;99578;;;;558488;254;24112;-77
2022/12/14 08:21:23;;;;;;;21.40;15.67;;;-6.50;99.90;-7.80;99588;;;;556157;254;24154;-81
2022/12/14 08:23:50;;;;;;;29.87;21.23;;;-6.50;99.90;-7.70;99582;;;;555560;254;24128;-83
2022/12/14 08:26:18;;;;;;;30.43;21.67;;;-6.40;99.90;-7.70;99587;;;;558038;254;24217;-73
2022/12/14 08:28:47;;;;;;;29.10;20.50;;;-6.40;99.90;-7.70;99584;;;;558242;254;24120;-84
2022/12/14 08:31:17;;;;;;;28.30;21.80;;;-6.30;99.90;-7.60;99590;;;;557471;254;24138;-80
2022/12/14 08:33:47;;;;;;;29.10;22.00;;;-6.30;99.90;-7.60;99585;;;;557970;254;24092;-73
2022/12/14 08:36:15;;;;;;;26.10;21.13;;;-6.30;99.90;-7.60;99577;;;;557455;255;24099;-74
2022/12/14 08:38:45;;;;;;;25.67;20.13;;;-6.30;99.90;-7.50;99575;;;;554949;255;24129;-71
2022/12/14 08:41:11;;;;;;;31.67;22.27;;;-6.20;99.90;-7.60;99575;;;;557570;255;24192;-72
2022/12/14 08:43:44;;;;;;;32.63;20.87;;;-6.20;99.90;-7.50;99566;;;;554865;255;24115;-71
2022/12/14 08:46:09;;;;;;;32.07;20.73;;;-6.20;99.90;-7.50;99570;;;;555648;255;24128;-72
2022/12/14 08:48:37;;;;;;;28.83;19.27;;;-6.10;99.90;-7.50;99563;;;;554970;255;24122;-72
2022/12/14 08:51:05;;;;;;;29.53;19.47;;;-6.20;99.90;-7.40;99565;;;;557539;255;24105;-71
2022/12/14 08:53:33;;;;;;;28.53;20.33;;;-6.10;99.90;-7.40;99564;;;;565837;254;24109;-73
2022/12/14 08:56:07;;;;;;;28.70;20.40;;;-6.10;99.90;-7.30;99570;;;;557424;255;24154;-71
2022/12/14 08:58:38;;;;;;;28.27;20.27;;;-6.00;99.90;-7.30;99563;;;;565374;254;24106;-72
2022/12/14 09:01:10;;;;;;;26.43;20.10;;;-6.00;99.90;-7.20;99561;;;;554562;255;24173;-72
2022/12/14 09:03:37;;;;;;;31.87;21.93;;;-5.90;99.90;-7.20;99570;;;;554707;255;24113;-73
2022/12/14 09:06:10;;;;;;;30.70;22.23;;;-5.80;99.90;-7.10;99573;;;;557463;255;24100;-76
2022/12/14 09:08:37;;;;;;;30.17;23.87;;;-5.80;99.90;-7.00;99584;;;;554503;255;24171;-71
2022/12/14 09:11:05;;;;;;;31.47;23.30;;;-5.80;99.90;-7.00;99569;;;;558189;254;24113;-71
2022/12/14 09:13:30;;;;;;;33.60;22.17;;;-5.70;99.90;-6.90;99570;;;;558307;254;24131;-72
2022/12/14 09:16:03;;;;;;;38.33;22.37;;;-5.60;99.90;-6.80;99563;;;;557858;254;24123;-72
2022/12/14 09:18:33;;;;;;;32.10;21.80;;;-5.40;99.90;-6.80;99563;;;;558210;254;24189;-70
2022/12/14 09:21:03;;;;;;;31.57;21.57;;;-5.40;99.90;-6.70;99547;;;;557558;254;24190;-71
2022/12/14 09:23:28;;;;;;;30.43;22.03;;;-5.40;99.90;-6.60;99548;;;;557299;254;24132;-70
2022/12/14 09:26:05;;;;;;;32.00;20.70;;;-5.40;99.90;-6.60;99551;;;;554927;254;24134;-71
2022/12/14 09:28:36;;;;;;;31.93;21.80;;;-5.30;99.90;-6.50;99547;;;;554787;254;24129;-70
2022/12/14 09:31:02;;;;;;;31.10;21.50;;;-5.20;99.90;-6.50;99549;;;;555414;254;24181;-71
2022/12/14 09:33:30;;;;;;;33.13;22.30;;;-5.20;99.90;-6.50;99543;;;;557745;254;24124;-72
2022/12/14 09:36:07;;;;;;;31.87;23.00;;;-5.20;99.90;-6.50;99542;;;;557576;254;24134;-71
2022/12/14 09:38:32;;;;;;;31.33;22.53;;;-5.20;99.90;-6.50;99542;;;;562642;254;24125;-71
2022/12/14 09:41:00;;;;;;;31.63;22.03;;;-5.20;99.90;-6.50;99537;;;;547180;254;24124;-77
2022/12/14 09:43:33;;;;;;;32.97;22.10;;;-5.30;99.90;-6.60;99542;;;;554971;254;24158;-74
2022/12/14 09:46:19;;;;;;;33.17;24.33;;;-5.30;99.90;-6.60;99520;;;;557433;255;24165;-72
2022/12/14 09:48:51;;;;;;;34.77;24.80;;;-5.30;99.90;-6.60;99526;;;;557143;255;24207;-73
2022/12/14 09:51:18;;;;;;;35.97;24.20;;;-5.30;99.90;-6.70;99534;;;;557028;255;25203;-71
2022/12/14 09:53:48;;;;;;;39.20;25.83;;;-5.40;99.90;-6.70;99516;;;;554506;255;24121;-73
2022/12/14 09:56:16;;;;;;;31.40;22.60;;;-5.40;99.90;-6.80;99539;;;;554076;255;25155;-72
2022/12/14 09:58:50;;;;;;;37.53;25.20;;;-5.50;99.90;-6.80;99532;;;;554574;255;24139;-74
2022/12/14 10:01:21;;;;;;;37.77;25.13;;;-5.60;99.90;-6.80;99521;;;;568974;249;24082;-72
2022/12/14 10:04:15;;;;;;;37.17;24.83;;;-5.60;99.90;-6.80;99536;;;;554624;254;24115;-71
2022/12/14 10:07:07;;;;;;;35.00;25.07;;;-5.60;99.90;-6.90;99515;;;;566179;249;24114;-72
2022/12/14 10:10:17;;;;;;;39.17;25.13;;;-5.60;99.90;-6.90;99523;;;;554113;255;24204;-74
2022/12/14 10:12:57;;;;;;;35.37;24.00;;;-5.60;99.90;-6.90;99519;;;;574415;250;24136;-74
2022/12/14 10:15:33;;;;;;;33.63;23.07;;;-5.70;99.90;-7.00;99523;;;;565970;250;24155;-71
2022/12/14 10:18:17;;;;;;;38.37;23.53;;;-5.70;99.90;-7.00;99523;;;;565403;251;24142;-73
2022/12/14 10:20:59;;;;;;;35.33;23.17;;;-5.70;99.90;-7.00;99515;;;;554128;251;24196;-78
2022/12/14 10:23:27;;;;;;;35.63;24.57;;;-5.70;99.90;-7.00;99509;;;;575833;248;24122;-72
2022/12/14 10:25:55;;;;;;;36.80;25.05;;;-5.80;99.90;-7.00;99506;;;;562261;250;35516;-72
2022/12/14 10:28:41;;;;;;;39.13;23.50;;;-5.70;99.90;-6.80;99501;;;;566789;250;24112;-72
2022/12/14 10:31:09;;;;;;;39.10;24.63;;;-5.60;99.90;-6.70;99508;;;;571026;250;24120;-76
2022/12/14 10:33:36;;;;;;;32.40;22.67;;;-5.40;99.90;-6.50;99500;;;;566213;250;24156;-79
2022/12/14 10:36:19;;;;;;;31.00;21.47;;;-5.30;99.90;-6.30;99504;;;;566273;250;24106;-72
2022/12/14 10:39:02;;;;;;;33.07;20.70;;;-5.10;99.90;-6.20;99504;;;;565775;250;24128;-71
2022/12/14 10:41:39;;;;;;;32.27;20.83;;;-4.90;99.90;-6.10;99504;;;;564675;251;24116;-72
2022/12/14 10:44:28;;;;;;;30.57;20.07;;;-4.80;99.90;-6.00;99502;;;;566328;251;24115;-74
2022/12/14 10:47:29;;;;;;;35.17;22.13;;;-4.70;99.90;-5.90;99506;;;;551914;251;24109;-72
2022/12/14 10:50:24;;;;;;;32.23;20.70;;;-4.60;99.90;-5.80;99500;;;;565861;251;24383;-70
2022/12/14 10:52:52;;;;;;;28.63;19.33;;;-4.50;99.90;-5.70;99496;;;;574527;250;24146;-71
2022/12/14 10:55:37;;;;;;;36.20;21.67;;;-4.40;99.90;-5.70;99489;;;;566239;251;24142;-73
2022/12/14 10:58:05;;;;;;;31.30;20.57;;;-4.40;99.90;-5.50;99488;;;;575006;250;24137;-71
2022/12/14 11:00:33;;;;;;;30.60;20.47;;;-4.30;99.90;-5.50;99481;;;;566580;251;24189;-73
2022/12/14 11:03:04;;;;;;;33.83;21.33;;;-4.20;99.90;-5.50;99489;;;;565883;251;24063;-75
2022/12/14 11:05:44;;;;;;;31.83;22.27;;;-4.20;99.90;-5.40;99494;;;;566221;251;24117;-77
2022/12/14 11:08:12;;;;;;;32.63;20.87;;;-4.20;99.90;-5.30;99486;;;;566184;251;24121;-73
2022/12/14 11:10:40;;;;;;;34.00;22.33;;;-4.10;99.90;-5.30;99482;;;;564768;251;24095;-80
2022/12/14 11:13:14;;;;;;;31.47;20.53;;;-4.00;99.90;-5.20;99485;;;;566617;251;24122;-82
2022/12/14 11:15:45;;;;;;;33.37;21.03;;;-4.00;99.90;-5.20;99481;;;;564161;251;27338;-80
2022/12/14 11:18:16;;;;;;;29.90;20.70;;;-3.90;99.90;-5.20;99477;;;;565267;251;24177;-82
2022/12/14 11:20:59;;;;;;;32.63;22.60;;;-3.90;99.90;-5.20;99475;;;;570355;251;24126;-79
2022/12/14 11:23:29;;;;;;;35.60;22.13;;;-3.90;99.90;-5.10;99473;;;;569590;251;24132;-81
2022/12/14 11:26:00;;;;;;;32.50;21.37;;;-3.90;99.90;-5.00;99467;;;;570302;251;24128;-80
2022/12/14 11:28:33;;;;;;;35.23;20.80;;;-3.80;99.90;-5.00;99469;;;;566098;251;24188;-74
2022/12/14 11:31:10;;;;;;;33.73;22.60;;;-3.80;99.90;-5.00;99460;;;;573799;250;24120;-73
2022/12/14 11:33:47;;;;;;;36.38;22.55;;;-3.80;99.90;-5.00;99449;;;;565222;250;35537;-70
2022/12/14 11:36:27;;;;;;;31.20;18.83;;;-3.70;99.90;-5.00;99454;;;;566033;250;24139;-71
2022/12/14 11:38:58;;;;;;;31.03;19.97;;;-3.70;99.90;-5.00;99451;;;;574061;250;24124;-75
2022/12/14 11:41:26;;;;;;;39.20;22.63;;;-3.70;99.90;-4.90;99441;;;;566289;250;24126;-72
2022/12/14 11:44:17;;;;;;;34.27;21.60;;;-3.70;99.90;-4.90;99440;;;;574270;247;24151;-72
2022/12/14 11:46:55;;;;;;;35.43;23.03;;;-3.70;99.90;-4.90;99435;;;;565143;250;24118;-72